Timeline UpdatesTrip UpdatesNews PostsPvt PostsTravel TipsAdmin PostsConv PostsFollowed PostsChat RequestsBlog PostsPNR Posts

Disclaimer
Search
 
 
Tue Sep 2, 2014 12:22:08 ISTHomeTrainsΣChainsAtlasPNRForumGalleryNewsFAQTripsMembersLoginFeedback
No Recent News for this Train
Other Trains in the News **new
Latest...
-
Tue Aug 05, 2014 (01:25PM)
⇐ Return Journey: Train# 16508

16507/Bhagat Ki Kothi - Bangalore Express

Time-Table HAS CHANGED.
Yesterday (11:39PM)
Change Departure Station:
Change Arrival Station:
Post a Train Travel TipPost a Train Travel Tip **new
Post a Comment/Question/Picture/VideoPost a Comment/Question/Picture/Video
Pantry/Catering
✓ Pantry Car Avbl
✓ Catering Avbl
RSA - Rake Sharing
Rake/Coach Composition
SLR-2; UR-3; SL-12; 3A-3; 2A-2 ;PC.total 23 coaches.Permanent 3AC from April 11 ex-Jodhpur.
Loco
Wdp-4 hubli shed
News    PNR    Forum    Time-Table    Availability    Fare Chart    Map    Arr/Dep History    Trips    Gallery    ΣChains    X/O    Timeline    
Travel Time: 8h 45m    8 halts    Distance: 446 km    Avg Speed: 50 km/hr
Type: Mail/Express
Zone: SWR/South Western
Departs @ 14:50
Platform# 7
    T S
Ahmedabad Junction/ADI 
Arrives @ 23:35
Platform# 7
    T S
Vasai Road/BSR 

8 halts. 82 intermediate Stations between Ahmedabad Junction and Vasai Road

Show ALL intermediate Stations  Show Old Time-Table

#CodeStation NameX/OArrivesAvgDepartsAvgHaltPFDay#KmSpeedElevZoneAddress
1BGKTBhagat Ki Kothi (3)  -05:40 05:35---1-456.449229mNWRJodhpur, Rajasthan
2LUNILuni Junction (3)  06:10-06:13-3m--1-428.163180mNWRLuni, Rajasthan
3PMYPali Marwar (2)  06:41 06:52-06:43 06:54-2m--1-386.938221mNWRPali, Rajasthan
4MJMarwar Junction (4)X  07:36 07:43-07:45-9 2m31-356.080267mNWRMarwar Junction, Rajasthan
5FAFalna (2)  08:34 08:35-08:36 08:37-2m11-289.565282mNWRFalna, Rajasthan
6JWBJawai Bandh  08:51 08:52-08:53 08:54-2m--1-273.369292mNWRPali, Rajasthan
7ABRAbu Road (3)X  10:06-10:25-19m--1-190.638264mNWRSirohi Dist, Rajasthan
8PNUPalanpur Junction (5)X  11:48-11:50-2m11-138.063216mWRPalanpur, Gujarat
9SIDSiddhpur  12:18-12:20-2m--1-108.647136mWRState Highway 41, Gujarat
10MSHMahesana Junction (6)  13:05-13:07-2m--1-73.05395mWRMehsana, Gujarat
11ADI»Ahmedabad Junction (12)»  14:30-14:50-20m710.05451mWRAhmedabad, Gujarat
12NDNadiad Junction (4)  15:41-15:43-2m1145.66237mWRNadiad, Gujarat
13ANNDAnand Junction (6)X  16:01-16:03-2m1164.05144mWRAnand, Gujarat
14BRCVadodara Junction (7)X  16:42 16:45-16:52 16:55-10m1199.88536mWRVadodara 390005, Gujarat
15BHBharuch Junction (5)X  17:39 17:45-17:41 17:47-2m41170.34619mWRBharuch, Gujarat
16STSurat (4)X  19:05-19:15-10m21229.65919mWRSurat 395001, Gujarat
17NVSNavsari (3)  19:45-19:47-2m21259.26514mWRNavsari, Gujarat
18BLValsad (3)X  20:23-20:25-2m31298.36615mWRValsad, Gujarat
19VAPIVapi (3)  20:49-20:51-2m21324.54427mWRVapi, Gujarat
20BSR•Vasai Road (7)•X  23:35-23:40 23:45-5 10m71445.6637mWRVasai 401202, Maharashtra
21BIRDBhiwandi Road (4)  00:11-00:13-2m22472.92226mCRBhiwandi, Maharashtra
22KYNKalyan Junction (8)  01:08 01:02-01:10 01:05-2 3m62490.95310mCRKalyan 421301, Maharashtra
23KJTKarjat Junction (4)  02:08 01:58-02:10 02:00-2m12537.74057mCRKarjat, Maharashtra
24LNLLonavala (3)  02:58 02:43-03:00 02:45-2m12566.445623mCRLonavala 410401, Maharashtra
25PUNEPune Junction (6)X  04:10-04:20-10m12630.051556mCRPune 411001, Maharashtra
26STRSatara (3)  07:10-07:13-3m--2775.764637mCRSatara, Maharashtra
27KRDKarad (3)  08:08-08:10-2m--2834.453597mCRDist- Satara., Maharashtra
28SLISangli (3)X  09:27-09:30-3m32902.37559mCRSangli, Maharashtra
29MRJMiraj Junction (6)  10:30-10:35-5m12909.654554mCRMiraj 416410, Maharashtra
30GPBGhatprabha (2)  12:03-12:05-2m--2989.143621mSWRGhatprabha, Karnataka
31BGMBelgaum (3)  13:25-13:30-5m--21047.068752mSWRBelgaum 590001, Karnataka
32LDLonda Junction (3)  14:15-14:17-2m--21098.334643mSWRLonda, Karnataka
33DWRDharwad (4)X  16:20-16:25-5m--21168.818737mSWRDharwad 580001, Karnataka
34UBLHubli Junction (5)  17:30-17:40-10m121188.858640mSWRHubli - 580020, Karnataka
35HVRHaveri (3)  18:50 18:58-18:52 19:00-2m--21263.970558mSWRHaveri, Karnataka
36RNRRanibennur (3)  19:26 19:28-19:28 19:30-2m--21296.542583mSWRRanebennur, Karnataka
37HRRHarihar (3)X  20:05 20:03-20:10 20:05-5 2m--21319.845553mSWRHarihar, Karnataka
38DVGDavangere (2)  20:24 20:22-20:27 20:25-3m121332.667598mSWRDavanagere, Karnataka
39RRBBirur Junction (3)  22:08-22:10-2m--21447.654802mSWRBirur, Karnataka
40ASKArsikere Junction (3)  23:00-23:05-5m--21492.655816mSWRArsikere, Karnataka
41TTRTiptur (4)X  23:33-23:35-2m--21518.143860mSWRTiptur, Karnataka
42TKTumkur (3)  01:28 01:13-01:30 01:15-2m--31589.145823mSWRTumkur, Karnataka
43YPRYesvantpur Junction (6)  02:55 02:40-03:00 02:45-5m--31653.121919mSWRBengaluru 560022, Karnataka
44MWMMalleswaram (2)  03:08 02:53-03:10 02:55-2m--31655.98916mSWRBengaluru, Karnataka
45SBCBangalore City Junction (10)  03:15--831658.7-903mSWRBengaluru-560023, Karnataka
Scroll to Top
Scroll to Bottom